This is the latest recevied weather packets stored in our database for station/object N0OQA. If no packets are shown the sender has not sent any weather packets the latest 10 day(s).
| Time | Temp. | Humidity | Pressure | Rain* | Wind** | Luminosity | Snow |
|---|---|---|---|---|---|---|---|
| 1777457522 | 2.22° C | 76% | 1020.4 hPa | 0 mm | - | - | - |
| 1777455720 | 2.78° C | 73% | 1020.2 hPa | 0 mm | - | - | - |
| 1777453919 | 3.33° C | 70% | 1020 hPa | 0 mm | - | - | - |
| 1777453318 | 3.89° C | 70% | 1019.9 hPa | 0 mm | - | - | - |
| 1777452117 | 3.89° C | 68% | 1019.7 hPa | 0 mm | - | - | - |
| 1777450916 | 4.44° C | 66% | 1019.8 hPa | 0 mm | - | - | - |
| 1777450615 | 4.44° C | 66% | 1019.8 hPa | 0 mm | - | - | - |
| 1777450315 | 4.44° C | 66% | 1019.7 hPa | 0 mm | - | - | - |
| 1777448814 | 5° C | 64% | 1019.7 hPa | 0 mm | - | - | - |
| 1777448213 | 5° C | 64% | 1019.6 hPa | 0 mm | - | - | - |
| 1777447913 | 5° C | 64% | 1019.6 hPa | 0 mm | - | - | - |
| 1777447612 | 5° C | 64% | 1019.6 hPa | 0 mm | - | - | - |
| 1777447312 | 5° C | 64% | 1019.7 hPa | 0 mm | - | - | - |
| 1777447012 | 5° C | 64% | 1019.6 hPa | 0 mm | - | - | - |
| 1777446712 | 5° C | 63% | 1019.7 hPa | 0 mm | - | - | - |
| 1777446111 | 5° C | 63% | 1019.7 hPa | 0 mm | - | - | - |
| 1777445811 | 5° C | 63% | 1019.7 hPa | 0 mm | - | - | - |
| 1777445511 | 5° C | 62% | 1019.6 hPa | 0 mm | - | - | - |
| 1777445210 | 5.56° C | 62% | 1019.7 hPa | 0 mm | - | - | - |
| 1777444910 | 5.56° C | 61% | 1019.8 hPa | 0 mm | - | - | - |
| 1777444610 | 5.56° C | 62% | 1019.8 hPa | 0 mm | - | - | - |
| 1777444309 | 5.56° C | 61% | 1019.8 hPa | 0 mm | - | - | - |
| 1777444009 | 5.56° C | 51% | 1019.2 hPa | 0 mm | - | - | - |
| 1777443709 | 5.56° C | 61% | 1019.8 hPa | 0 mm | - | - | - |
| 1777443409 | 5.56° C | 62% | 1019.8 hPa | 0 mm | - | - | - |
* Rain since midnight (hover to see other rain measurements)
** Current wind speed in m/s (hover to see current wind gust speed)